Time;durP1;ratioP1;P1;durP2;ratioP2;P2;SDS_P1;SDS_P2;PMS_P1;PMS_P2;Temp;Humidity;BMP_temperature;BMP_pressure;BME280_temperature;BME280_humidity;BME280_pressure;Samples;Min_cycle;Max_cycle;Signal;HPM_P1;HPM_P2
2023/05/27 00:00:52;;;;;;;;;;;9.40;99.90;;;;;;5134589;27;19924;-63
2023/05/27 00:03:17;;;;;;;;;;;9.40;99.90;;;;;;5134000;27;19924;-63
2023/05/27 00:05:43;;;;;;;;;;;9.40;99.90;;;;;;5134591;27;19931;-63
2023/05/27 00:08:08;;;;;;;;;;;9.30;99.90;;;;;;5116055;27;19976;-63
2023/05/27 00:10:34;;;;;;;;;;;9.20;99.90;;;;;;5134404;27;20288;-64
2023/05/27 00:13:00;;;;;;;;;;;9.20;99.90;;;;;;5134286;27;20364;-64
2023/05/27 00:15:26;;;;;;;;;;;9.20;99.90;;;;;;5132802;27;19924;-63
2023/05/27 00:17:52;;;;;;;;;;;9.20;99.90;;;;;;5134336;27;20027;-64
2023/05/27 00:20:19;;;;;;;;;;;9.20;99.90;;;;;;5132577;27;20064;-63
2023/05/27 00:22:45;;;;;;;;;;;9.10;99.90;;;;;;5134184;27;19923;-63
2023/05/27 00:25:10;;;;;;;;;;;9.10;99.90;;;;;;5133639;27;19935;-63
2023/05/27 00:27:36;;;;;;;;;;;9.10;99.90;;;;;;5134085;27;19968;-63
2023/05/27 00:30:02;;;;;;;;;;;9.10;99.90;;;;;;5115922;27;20280;-63
2023/05/27 00:32:28;;;;;;;;;;;9.00;99.90;;;;;;5133926;27;19925;-63
2023/05/27 00:34:53;;;;;;;;;;;9.10;99.90;;;;;;5133967;27;19923;-64
2023/05/27 00:37:19;;;;;;;;;;;9.00;99.90;;;;;;5131002;27;19923;-63
2023/05/27 00:39:44;;;;;;;;;;;9.00;99.90;;;;;;5133910;27;19972;-63
2023/05/27 00:42:10;;;;;;;;;;;9.00;99.90;;;;;;5133384;27;19923;-63
2023/05/27 00:44:36;;;;;;;;;;;9.00;99.90;;;;;;5133767;27;19923;-64
2023/05/27 00:47:01;;;;;;;;;;;9.00;99.90;;;;;;5132550;27;19925;-64
2023/05/27 00:49:27;;;;;;;;;;;9.00;99.90;;;;;;5133263;27;19930;-63
2023/05/27 00:51:53;;;;;;;;;;;8.90;99.90;;;;;;5132627;27;19923;-64
2023/05/27 00:54:18;;;;;;;;;;;8.90;99.90;;;;;;5133144;27;19923;-63
2023/05/27 00:56:44;;;;;;;;;;;8.90;99.90;;;;;;5133477;27;19947;-65
2023/05/27 00:59:10;;;;;;;;;;;8.90;99.90;;;;;;5133206;27;19930;-64
2023/05/27 01:01:36;;;;;;;;;;;8.90;99.90;;;;;;5167008;27;20322;-63
2023/05/27 01:04:02;;;;;;;;;;;8.90;99.90;;;;;;5133344;27;19976;-63
2023/05/27 01:06:36;;;;;;;;;;;8.90;99.90;;;;;;5133082;27;19988;-63
2023/05/27 01:09:02;;;;;;;;;;;8.80;99.90;;;;;;5132249;27;19929;-63
2023/05/27 01:11:53;;;;;;;;;;;8.80;99.90;;;;;;5132516;27;19923;-64
2023/05/27 01:14:20;;;;;;;;;;;8.80;99.90;;;;;;5130617;27;19945;-63
2023/05/27 01:16:46;;;;;;;;;;;8.80;99.90;;;;;;5131975;27;19953;-65
2023/05/27 01:19:22;;;;;;;;;;;8.70;99.90;;;;;;5148594;27;20376;-65
2023/05/27 01:21:50;;;;;;;;;;;8.80;99.90;;;;;;5132238;27;19930;-64
2023/05/27 01:24:16;;;;;;;;;;;8.70;99.90;;;;;;5132546;27;20425;-64
2023/05/27 01:26:42;;;;;;;;;;;8.70;99.90;;;;;;5133263;28;19923;-64
2023/05/27 01:29:08;;;;;;;;;;;8.70;99.90;;;;;;5133194;27;19923;-64
2023/05/27 01:31:55;;;;;;;;;;;8.70;99.90;;;;;;5132745;27;19927;-63
2023/05/27 01:34:24;;;;;;;;;;;8.70;99.90;;;;;;5131739;28;19927;-64
2023/05/27 01:36:57;;;;;;;;;;;8.80;99.90;;;;;;5133041;27;19924;-64
2023/05/27 01:39:24;;;;;;;;;;;8.80;99.90;;;;;;5132740;27;19951;-64
2023/05/27 01:41:50;;;;;;;;;;;8.80;99.90;;;;;;5132779;27;19970;-64
2023/05/27 01:44:17;;;;;;;;;;;8.90;99.90;;;;;;5132541;27;19930;-66
2023/05/27 01:46:43;;;;;;;;;;;8.90;99.90;;;;;;5132943;27;19924;-63
2023/05/27 01:49:09;;;;;;;;;;;8.80;99.90;;;;;;5134997;27;19923;-63
2023/05/27 01:51:35;;;;;;;;;;;8.80;99.90;;;;;;5135634;27;20243;-64
2023/05/27 01:54:00;;;;;;;;;;;8.80;99.90;;;;;;5137020;27;19986;-64
2023/05/27 01:56:26;;;;;;;;;;;8.80;99.90;;;;;;5134967;27;19930;-64
2023/05/27 01:58:51;;;;;;;;;;;8.80;99.90;;;;;;5135123;27;19923;-64
2023/05/27 02:01:17;;;;;;;;;;;8.80;99.90;;;;;;5136475;27;19924;-66
2023/05/27 02:03:43;;;;;;;;;;;8.80;99.90;;;;;;5136891;27;19945;-63
2023/05/27 02:06:08;;;;;;;;;;;8.80;99.90;;;;;;5135455;27;19924;-64
2023/05/27 02:08:34;;;;;;;;;;;8.80;99.90;;;;;;5134770;27;19945;-63
2023/05/27 02:10:59;;;;;;;;;;;8.80;99.90;;;;;;5136826;27;19930;-63
2023/05/27 02:13:25;;;;;;;;;;;8.70;99.90;;;;;;5136055;27;19923;-64
2023/05/27 02:15:50;;;;;;;;;;;8.70;99.90;;;;;;5136617;27;20022;-63
2023/05/27 02:18:16;;;;;;;;;;;8.70;99.90;;;;;;5136521;27;19927;-64
2023/05/27 02:20:42;;;;;;;;;;;8.70;99.90;;;;;;5134901;27;19931;-64
2023/05/27 02:23:08;;;;;;;;;;;8.60;99.90;;;;;;5136319;27;19923;-64
2023/05/27 02:25:33;;;;;;;;;;;8.60;99.90;;;;;;5135121;27;19972;-64
2023/05/27 02:28:02;;;;;;;;;;;8.60;99.90;;;;;;5135106;27;19924;-65
2023/05/27 02:30:31;;;;;;;;;;;8.60;99.90;;;;;;5135995;27;19923;-64
2023/05/27 02:32:56;;;;;;;;;;;8.60;99.90;;;;;;5136178;27;20281;-64
2023/05/27 02:35:22;;;;;;;;;;;8.60;99.90;;;;;;5135465;27;19923;-66
2023/05/27 02:37:48;;;;;;;;;;;8.60;99.90;;;;;;5135961;27;19999;-64
2023/05/27 02:40:23;;;;;;;;;;;8.70;99.90;;;;;;5135912;27;20030;-64
2023/05/27 02:42:49;;;;;;;;;;;8.70;99.90;;;;;;5136047;27;19930;-64
2023/05/27 02:45:15;;;;;;;;;;;8.70;99.90;;;;;;5136097;27;19924;-64
2023/05/27 02:47:41;;;;;;;;;;;8.70;99.90;;;;;;5117715;27;19927;-64
2023/05/27 02:50:06;;;;;;;;;;;8.70;99.90;;;;;;5135769;27;20038;-64
2023/05/27 02:52:32;;;;;;;;;;;8.70;99.90;;;;;;5134425;27;19923;-64
2023/05/27 02:54:58;;;;;;;;;;;8.70;99.90;;;;;;5133815;27;19989;-64
2023/05/27 02:57:23;;;;;;;;;;;8.70;99.90;;;;;;5136060;27;19931;-65
2023/05/27 02:59:49;;;;;;;;;;;8.70;99.90;;;;;;5134889;27;20365;-64
2023/05/27 03:02:14;;;;;;;;;;;8.60;99.90;;;;;;5134510;27;19923;-64
2023/05/27 03:04:40;;;;;;;;;;;8.70;99.90;;;;;;5135360;27;19928;-64
2023/05/27 03:07:06;;;;;;;;;;;8.60;99.90;;;;;;5135612;27;19923;-64
2023/05/27 03:09:31;;;;;;;;;;;8.60;99.90;;;;;;5134128;27;19936;-64
2023/05/27 03:11:57;;;;;;;;;;;8.60;99.90;;;;;;5134153;27;19949;-64
2023/05/27 03:14:22;;;;;;;;;;;8.70;99.90;;;;;;5135422;27;19923;-64
2023/05/27 03:16:48;;;;;;;;;;;8.70;99.90;;;;;;5134903;27;20369;-64
2023/05/27 03:19:14;;;;;;;;;;;8.70;99.90;;;;;;5133766;27;19927;-64
2023/05/27 03:21:39;;;;;;;;;;;8.70;99.90;;;;;;5135050;27;19924;-64
2023/05/27 03:24:05;;;;;;;;;;;8.70;99.90;;;;;;5134955;27;20026;-64
2023/05/27 03:26:31;;;;;;;;;;;8.70;99.90;;;;;;5134725;27;20399;-65
2023/05/27 03:28:56;;;;;;;;;;;8.80;99.90;;;;;;5133865;27;20322;-64
2023/05/27 03:31:22;;;;;;;;;;;8.80;99.90;;;;;;5116808;27;19952;-64
2023/05/27 03:33:47;;;;;;;;;;;8.80;99.90;;;;;;5134636;27;19978;-64
2023/05/27 03:36:13;;;;;;;;;;;8.80;99.90;;;;;;5134194;27;19980;-64
2023/05/27 03:38:38;;;;;;;;;;;8.90;99.90;;;;;;5134668;27;19931;-64
2023/05/27 03:41:04;;;;;;;;;;;8.90;99.90;;;;;;5135033;27;19923;-64
2023/05/27 03:43:29;;;;;;;;;;;8.90;99.90;;;;;;5116157;27;20330;-64
2023/05/27 03:45:55;;;;;;;;;;;8.90;99.90;;;;;;5133549;27;20015;-64
2023/05/27 03:48:21;;;;;;;;;;;9.00;99.90;;;;;;5133745;27;19923;-64
2023/05/27 03:50:46;;;;;;;;;;;9.10;99.90;;;;;;5133996;27;19969;-64
2023/05/27 03:53:12;;;;;;;;;;;9.10;99.90;;;;;;5135001;27;19943;-63
2023/05/27 03:55:37;;;;;;;;;;;9.10;99.90;;;;;;5133136;27;19931;-63
2023/05/27 03:58:04;;;;;;;;;;;9.10;99.90;;;;;;5134835;27;19992;-64
2023/05/27 04:00:30;;;;;;;;;;;9.10;99.90;;;;;;5133716;27;19924;-64
2023/05/27 04:02:56;;;;;;;;;;;9.10;99.90;;;;;;5134124;27;20284;-63
2023/05/27 04:05:22;;;;;;;;;;;9.20;99.90;;;;;;5133543;27;19923;-63
2023/05/27 04:07:47;;;;;;;;;;;9.20;99.90;;;;;;5132772;27;19923;-63
2023/05/27 04:10:13;;;;;;;;;;;9.30;99.90;;;;;;5134278;27;19927;-63
2023/05/27 04:12:39;;;;;;;;;;;9.30;99.90;;;;;;5132969;27;19924;-64
2023/05/27 04:15:06;;;;;;;;;;;9.30;99.90;;;;;;5134098;27;19923;-64
2023/05/27 04:17:31;;;;;;;;;;;9.40;99.90;;;;;;5133344;27;19946;-64
2023/05/27 04:19:59;;;;;;;;;;;9.40;99.90;;;;;;5134226;27;19924;-63
2023/05/27 04:22:24;;;;;;;;;;;9.50;99.90;;;;;;5132942;27;20029;-64
2023/05/27 04:24:52;;;;;;;;;;;9.50;99.90;;;;;;5133682;27;20025;-63
2023/05/27 04:27:19;;;;;;;;;;;9.50;99.90;;;;;;5134179;27;20017;-63
2023/05/27 04:29:45;;;;;;;;;;;9.60;99.90;;;;;;5133793;27;20261;-63
2023/05/27 04:32:12;;;;;;;;;;;9.60;99.90;;;;;;5133959;27;19934;-64
2023/05/27 04:34:41;;;;;;;;;;;9.70;99.90;;;;;;5133712;27;19930;-65
2023/05/27 04:37:09;;;;;;;;;;;9.70;99.90;;;;;;5133539;27;19991;-63
2023/05/27 04:39:35;;;;;;;;;;;9.80;99.90;;;;;;5134026;27;19923;-63
2023/05/27 04:42:01;;;;;;;;;;;9.80;99.90;;;;;;5133033;27;19935;-63
2023/05/27 04:44:28;;;;;;;;;;;9.90;99.90;;;;;;5133826;27;19985;-63
2023/05/27 04:46:54;;;;;;;;;;;10.00;99.90;;;;;;5133136;27;19924;-63
2023/05/27 04:49:20;;;;;;;;;;;10.00;99.90;;;;;;5132801;27;19930;-63
2023/05/27 04:51:47;;;;;;;;;;;9.90;99.90;;;;;;5133361;27;20010;-64
2023/05/27 04:54:12;;;;;;;;;;;10.00;99.90;;;;;;5133460;27;19977;-63
2023/05/27 04:56:38;;;;;;;;;;;10.00;99.90;;;;;;5133772;27;19924;-63
2023/05/27 04:59:05;;;;;;;;;;;10.00;99.90;;;;;;5132947;27;20014;-63
2023/05/27 05:01:48;;;;;;;;;;;10.00;99.90;;;;;;5115578;27;19930;-64
2023/05/27 05:04:14;;;;;;;;;;;10.00;99.90;;;;;;5133798;27;19927;-64
2023/05/27 05:06:40;;;;;;;;;;;10.00;99.90;;;;;;5133477;27;20042;-63
2023/05/27 05:09:09;;;;;;;;;;;10.00;99.90;;;;;;5131969;27;19963;-63
2023/05/27 05:11:34;;;;;;;;;;;10.00;99.90;;;;;;5115139;27;19923;-64
2023/05/27 05:14:00;;;;;;;;;;;10.00;99.90;;;;;;5131653;27;19934;-63
2023/05/27 05:16:25;;;;;;;;;;;10.10;99.90;;;;;;5132343;27;19930;-64
2023/05/27 05:18:51;;;;;;;;;;;10.10;99.90;;;;;;5132990;27;19939;-63
2023/05/27 05:21:16;;;;;;;;;;;10.10;99.90;;;;;;5133090;27;20495;-63
2023/05/27 05:23:42;;;;;;;;;;;10.10;99.90;;;;;;5132926;27;19930;-64
2023/05/27 05:26:08;;;;;;;;;;;10.10;99.90;;;;;;5132787;27;20280;-64
2023/05/27 05:28:36;;;;;;;;;;;10.10;99.90;;;;;;5131716;28;19977;-64
2023/05/27 05:31:02;;;;;;;;;;;10.20;99.90;;;;;;5132590;27;19923;-64
2023/05/27 05:33:28;;;;;;;;;;;10.20;99.90;;;;;;5133005;27;19923;-63
2023/05/27 05:35:54;;;;;;;;;;;10.20;99.90;;;;;;5132741;27;20030;-63
2023/05/27 05:38:20;;;;;;;;;;;10.20;99.90;;;;;;5133002;27;19933;-63
2023/05/27 05:40:49;;;;;;;;;;;10.30;99.90;;;;;;5131919;28;19974;-62
2023/05/27 05:43:15;;;;;;;;;;;10.30;99.90;;;;;;5132689;27;20287;-63
2023/05/27 05:45:41;;;;;;;;;;;10.40;99.90;;;;;;5166303;27;20021;-63
2023/05/27 05:48:06;;;;;;;;;;;10.50;99.90;;;;;;5132839;28;20305;-63
2023/05/27 05:50:32;;;;;;;;;;;;;;;;;;5131855;28;20023;-64
2023/05/27 05:52:58;;;;;;;;;;;;;;;;;;5132057;28;20380;-63
2023/05/27 05:55:24;;;;;;;;;;;10.60;99.90;;;;;;5132765;28;19924;-63
2023/05/27 05:57:49;;;;;;;;;;;12.10;99.90;;;;;;5132372;28;19930;-65
2023/05/27 06:00:15;;;;;;;;;;;13.10;99.90;;;;;;5131332;28;19924;-62
2023/05/27 06:02:41;;;;;;;;;;;14.10;99.90;;;;;;5132767;27;20390;-62
2023/05/27 06:05:06;;;;;;;;;;;14.90;99.90;;;;;;5131325;28;19924;-63
2023/05/27 06:07:32;;;;;;;;;;;15.60;99.90;;;;;;5132351;27;19928;-65
2023/05/27 06:09:58;;;;;;;;;;;16.30;99.90;;;;;;5130963;28;19924;-63
2023/05/27 06:12:24;;;;;;;;;;;16.90;99.90;;;;;;5114344;28;20265;-63
2023/05/27 06:14:50;;;;;;;;;;;;;;;;;;5132483;27;19924;-63
2023/05/27 06:17:16;;;;;;;;;;;17.10;99.90;;;;;;5132483;27;19923;-63
2023/05/27 06:19:41;;;;;;;;;;;17.40;99.90;;;;;;5132670;27;19930;-63
2023/05/27 06:22:07;;;;;;;;;;;17.70;99.90;;;;;;5131022;28;20265;-63
2023/05/27 06:24:33;;;;;;;;;;;;;;;;;;5132464;28;19930;-63
2023/05/27 06:26:58;;;;;;;;;;;17.90;99.90;;;;;;5131970;28;20033;-63
2023/05/27 06:29:24;;;;;;;;;;;18.80;99.90;;;;;;5132599;28;20015;-62
2023/05/27 06:31:49;;;;;;;;;;;19.10;99.90;;;;;;5165896;27;20382;-62
2023/05/27 06:34:16;;;;;;;;;;;19.10;99.90;;;;;;5131505;27;20401;-63
2023/05/27 06:36:41;;;;;;;;;;;19.20;99.90;;;;;;5136215;27;19930;-63
2023/05/27 06:39:07;;;;;;;;;;;19.50;99.90;;;;;;5135745;27;19923;-63
2023/05/27 06:41:32;;;;;;;;;;;19.70;99.90;;;;;;5136060;27;19923;-64
2023/05/27 06:43:58;;;;;;;;;;;19.80;99.90;;;;;;5135527;27;20017;-65
2023/05/27 06:46:23;;;;;;;;;;;20.10;99.90;;;;;;5136071;27;19923;-63
2023/05/27 06:48:49;;;;;;;;;;;20.40;99.90;;;;;;5134470;27;19923;-63
2023/05/27 06:51:15;;;;;;;;;;;20.50;99.90;;;;;;5135633;27;19923;-63
2023/05/27 06:53:40;;;;;;;;;;;20.50;99.90;;;;;;5134334;27;20064;-63
2023/05/27 06:56:06;;;;;;;;;;;20.10;99.90;;;;;;5133629;27;19923;-63
2023/05/27 06:58:32;;;;;;;;;;;19.60;99.90;;;;;;5135773;27;19923;-63
2023/05/27 07:00:57;;;;;;;;;;;19.60;99.90;;;;;;5134540;27;19970;-62
2023/05/27 07:03:23;;;;;;;;;;;19.90;99.90;;;;;;5135101;27;19923;-63
2023/05/27 07:05:48;;;;;;;;;;;20.30;99.70;;;;;;5135553;27;19924;-63
2023/05/27 07:08:14;;;;;;;;;;;20.30;99.60;;;;;;5135121;27;19927;-63
2023/05/27 07:10:40;;;;;;;;;;;20.30;99.90;;;;;;5135455;27;19928;-67
2023/05/27 07:13:05;;;;;;;;;;;20.30;99.00;;;;;;5116510;27;20352;-66
2023/05/27 07:15:31;;;;;;;;;;;20.40;99.90;;;;;;5133959;27;20026;-68
2023/05/27 07:17:56;;;;;;;;;;;20.80;99.10;;;;;;5134080;27;19997;-67
2023/05/27 07:20:22;;;;;;;;;;;21.30;99.50;;;;;;5133660;27;19926;-66
2023/05/27 07:22:48;;;;;;;;;;;21.70;98.20;;;;;;5134275;27;20292;-66
2023/05/27 07:25:13;;;;;;;;;;;22.10;98.80;;;;;;5133563;27;20288;-66
2023/05/27 07:27:39;;;;;;;;;;;22.20;98.80;;;;;;5133702;27;19972;-66
2023/05/27 07:30:05;;;;;;;;;;;22.30;96.90;;;;;;5133687;27;20420;-69
2023/05/27 07:32:31;;;;;;;;;;;22.40;97.80;;;;;;5134920;27;20004;-67
2023/05/27 07:34:56;;;;;;;;;;;22.60;98.00;;;;;;5134845;27;19977;-67
2023/05/27 07:37:23;;;;;;;;;;;22.20;97.60;;;;;;5133338;27;19930;-67
2023/05/27 07:39:50;;;;;;;;;;;21.80;96.80;;;;;;5134887;27;20276;-67
2023/05/27 07:42:18;;;;;;;;;;;21.70;97.20;;;;;;5131975;27;20547;-68
2023/05/27 07:44:43;;;;;;;;;;;21.80;97.50;;;;;;5134952;27;20299;-66
2023/05/27 07:47:09;;;;;;;;;;;21.70;96.20;;;;;;5133464;27;19931;-66
2023/05/27 07:49:35;;;;;;;;;;;21.70;97.20;;;;;;5134630;27;19965;-66
2023/05/27 07:52:01;;;;;;;;;;;22.50;97.10;;;;;;5168288;27;20330;-67
2023/05/27 07:54:26;;;;;;;;;;;23.20;96.80;;;;;;5115480;27;20036;-66
2023/05/27 07:56:52;;;;;;;;;;;23.60;96.80;;;;;;5116458;27;20334;-67
2023/05/27 07:59:18;;;;;;;;;;;;;;;;;;5150047;27;20340;-67
2023/05/27 08:01:44;;;;;;;;;;;;;;;;;;5133326;27;19958;-67
2023/05/27 08:04:10;;;;;;;;;;;;;;;;;;5134058;27;19931;-68
2023/05/27 08:06:36;;;;;;;;;;;;;;;;;;5134285;27;20360;-65
2023/05/27 08:09:03;;;;;;;;;;;24.00;96.80;;;;;;5133148;27;20310;-66
2023/05/27 08:11:29;;;;;;;;;;;24.10;94.20;;;;;;5132896;27;20365;-66
2023/05/27 08:13:54;;;;;;;;;;;23.50;93.80;;;;;;5134113;27;19938;-66
2023/05/27 08:16:20;;;;;;;;;;;;;;;;;;5133766;27;19934;-66
2023/05/27 08:18:46;;;;;;;;;;;23.30;94.90;;;;;;5133228;27;19924;-66
2023/05/27 08:21:12;;;;;;;;;;;;;;;;;;5132632;27;20304;-67
2023/05/27 08:23:38;;;;;;;;;;;;;;;;;;5134102;27;20369;-66
2023/05/27 08:26:04;;;;;;;;;;;;;;;;;;5133901;27;19976;-66
2023/05/27 08:28:30;;;;;;;;;;;;;;;;;;5133609;27;20368;-66
2023/05/27 08:30:56;;;;;;;;;;;;;;;;;;5132530;27;20394;-66
2023/05/27 08:33:23;;;;;;;;;;;;;;;;;;5133597;27;19923;-66
2023/05/27 08:35:49;;;;;;;;;;;;;;;;;;5133593;27;19923;-66
2023/05/27 08:38:15;;;;;;;;;;;;;;;;;;5133625;27;19931;-68
2023/05/27 08:40:41;;;;;;;;;;;;;;;;;;5133879;27;20015;-66
2023/05/27 08:43:07;;;;;;;;;;;;;;;;;;5133801;27;20284;-66
2023/05/27 08:45:33;;;;;;;;;;;;;;;;;;5133327;27;19931;-66
2023/05/27 08:47:59;;;;;;;;;;;;;;;;;;5133760;27;19946;-67
2023/05/27 08:50:25;;;;;;;;;;;;;;;;;;5132394;27;19967;-66
2023/05/27 08:52:51;;;;;;;;;;;;;;;;;;5132381;27;19927;-66
2023/05/27 08:55:17;;;;;;;;;;;;;;;;;;5131949;27;19923;-68
2023/05/27 08:57:43;;;;;;;;;;;;;;;;;;5132887;27;20296;-66
2023/05/27 09:00:11;;;;;;;;;;;;;;;;;;5132455;27;19930;-67
2023/05/27 09:02:37;;;;;;;;;;;;;;;;;;5132987;27;20388;-67
2023/05/27 09:05:03;;;;;;;;;;;;;;;;;;5133085;27;19923;-66
2023/05/27 09:07:29;;;;;;;;;;;;;;;;;;5132784;27;19937;-66
2023/05/27 09:09:56;;;;;;;;;;;;;;;;;;5131965;27;20425;-67
2023/05/27 09:12:22;;;;;;;;;;;;;;;;;;5132853;27;19924;-67
2023/05/27 09:14:48;;;;;;;;;;;;;;;;;;5166637;27;19930;-66
2023/05/27 09:17:15;;;;;;;;;;;;;;;;;;5132838;27;19981;-66
2023/05/27 09:19:41;;;;;;;;;;;;;;;;;;5149183;27;19933;-66
2023/05/27 09:22:07;;;;;;;;;;;;;;;;;;5133167;27;19923;-68
2023/05/27 09:24:32;;;;;;;;;;;;;;;;;;5132799;27;19923;-66
2023/05/27 09:26:58;;;;;;;;;;;;;;;;;;5131549;27;19930;-66
2023/05/27 09:29:25;;;;;;;;;;;;;;;;;;5132727;27;20064;-67
2023/05/27 09:31:51;;;;;;;;;;;;;;;;;;5166524;27;20030;-66
2023/05/27 09:34:17;;;;;;;;;;;;;;;;;;5133006;28;20008;-66
2023/05/27 09:36:43;;;;;;;;;;;;;;;;;;5131427;28;19945;-66
2023/05/27 09:39:10;;;;;;;;;;;;;;;;;;5132126;28;19923;-66
2023/05/27 09:41:37;;;;;;;;;;;;;;;;;;5132692;27;19970;-67
2023/05/27 09:44:03;;;;;;;;;;;;;;;;;;5133002;27;19968;-66
2023/05/27 09:46:29;;;;;;;;;;;;;;;;;;5132566;28;20326;-65
2023/05/27 09:48:55;;;;;;;;;;;;;;;;;;5132939;27;19927;-66
2023/05/27 09:51:21;;;;;;;;;;;;;;;;;;5166345;27;19972;-65
2023/05/27 09:53:47;;;;;;;;;;;;;;;;;;5165745;27;20003;-65
2023/05/27 09:56:13;;;;;;;;;;;;;;;;;;5131177;28;20018;-65
2023/05/27 09:58:39;;;;;;;;;;;;;;;;;;5131236;28;19968;-65
2023/05/27 10:01:05;;;;;;;;;;;;;;;;;;5131895;28;19924;-66
2023/05/27 10:03:32;;;;;;;;;;;;;;;;;;5131500;28;19931;-65
2023/05/27 10:05:58;;;;;;;;;;;23.60;94.60;;;;;;5149177;27;19930;-65
2023/05/27 10:08:25;;;;;;;;;;;22.20;94.20;;;;;;5132720;27;19983;-68
2023/05/27 10:10:50;;;;;;;;;;;21.70;94.50;;;;;;5134974;27;19928;-66
2023/05/27 10:13:18;;;;;;;;;;;21.50;94.50;;;;;;5136548;27;19952;-65
2023/05/27 10:15:51;;;;;;;;;;;21.20;94.70;;;;;;5136208;27;19923;-65
2023/05/27 10:18:23;;;;;;;;;;;21.40;94.70;;;;;;5118913;27;19923;-65
2023/05/27 10:20:50;;;;;;;;;;;21.40;94.30;;;;;;5135223;27;19935;-65
2023/05/27 10:23:17;;;;;;;;;;;21.40;94.60;;;;;;5135546;27;19930;-65
2023/05/27 10:25:50;;;;;;;;;;;21.30;94.60;;;;;;5135317;27;20280;-66
2023/05/27 10:28:25;;;;;;;;;;;21.20;94.50;;;;;;5136406;27;20002;-65
2023/05/27 10:30:51;;;;;;;;;;;21.10;94.90;;;;;;5134629;27;19927;-65
2023/05/27 10:33:25;;;;;;;;;;;20.90;95.00;;;;;;5134958;27;19970;-66
2023/05/27 10:35:51;;;;;;;;;;;20.80;95.60;;;;;;5134655;27;19976;-66
2023/05/27 10:38:17;;;;;;;;;;;;;;;;;;5136065;27;19927;-66
2023/05/27 10:40:47;;;;;;;;;;;20.70;96.00;;;;;;5134571;27;19923;-66
2023/05/27 10:43:16;;;;;;;;;;;20.30;96.30;;;;;;5169151;27;20412;-66
2023/05/27 10:45:42;;;;;;;;;;;20.40;96.20;;;;;;5134416;27;19931;-66
2023/05/27 10:48:34;;;;;;;;;;;20.70;96.40;;;;;;5117658;27;19924;-65
2023/05/27 10:51:00;;;;;;;;;;;20.80;96.10;;;;;;5114674;27;20002;-66
2023/05/27 10:53:26;;;;;;;;;;;20.70;95.90;;;;;;5135149;27;19973;-65
2023/05/27 10:55:52;;;;;;;;;;;20.50;96.20;;;;;;5134319;27;19919;-66
2023/05/27 10:58:18;;;;;;;;;;;20.40;96.60;;;;;;5134266;27;20300;-66
2023/05/27 11:00:53;;;;;;;;;;;20.40;97.00;;;;;;5134441;27;19924;-65
2023/05/27 11:03:21;;;;;;;;;;;20.40;96.60;;;;;;5135945;27;19939;-65
2023/05/27 11:06:07;;;;;;;;;;;20.30;96.20;;;;;;5134401;27;20288;-65
2023/05/27 11:08:33;;;;;;;;;;;20.30;96.20;;;;;;5134238;27;20014;-65
2023/05/27 11:10:59;;;;;;;;;;;20.20;96.50;;;;;;5169217;27;19930;-65
2023/05/27 11:13:35;;;;;;;;;;;20.20;96.40;;;;;;5135614;27;19923;-65
2023/05/27 11:16:02;;;;;;;;;;;20.20;96.50;;;;;;5169074;27;19985;-65
2023/05/27 11:18:37;;;;;;;;;;;20.20;96.40;;;;;;5135633;27;19923;-65
2023/05/27 11:21:04;;;;;;;;;;;20.20;96.60;;;;;;5135336;27;20022;-65
2023/05/27 11:23:37;;;;;;;;;;;20.10;96.50;;;;;;5134201;27;20440;-65
2023/05/27 11:26:03;;;;;;;;;;;20.20;96.60;;;;;;5134490;27;19923;-65
2023/05/27 11:28:29;;;;;;;;;;;20.00;96.30;;;;;;5116979;27;20299;-65
2023/05/27 11:30:58;;;;;;;;;;;20.10;96.60;;;;;;5134167;27;20103;-67
2023/05/27 11:33:33;;;;;;;;;;;20.30;96.40;;;;;;5135003;27;19970;-65
2023/05/27 11:36:05;;;;;;;;;;;20.40;96.40;;;;;;5135012;27;19923;-65
2023/05/27 11:38:32;;;;;;;;;;;20.40;96.10;;;;;;5116923;27;19924;-65
2023/05/27 11:41:07;;;;;;;;;;;20.40;96.50;;;;;;5133923;27;19923;-65
2023/05/27 11:43:33;;;;;;;;;;;20.60;96.50;;;;;;5168083;27;19927;-65
2023/05/27 11:46:04;;;;;;;;;;;20.70;96.20;;;;;;5133472;27;20038;-65
2023/05/27 11:48:30;;;;;;;;;;;20.60;95.80;;;;;;5134904;27;19934;-65
2023/05/27 11:50:57;;;;;;;;;;;20.40;96.40;;;;;;5133597;27;20368;-65
2023/05/27 11:53:22;;;;;;;;;;;20.50;96.30;;;;;;5116608;27;19946;-67
2023/05/27 11:55:48;;;;;;;;;;;20.60;96.10;;;;;;5133264;27;19923;-65
2023/05/27 11:58:14;;;;;;;;;;;20.50;96.00;;;;;;5133254;27;19966;-65
2023/05/27 12:00:39;;;;;;;;;;;20.40;95.50;;;;;;5133326;27;19924;-68
2023/05/27 12:03:05;;;;;;;;;;;20.40;95.90;;;;;;5134291;27;19923;-66
2023/05/27 12:05:30;;;;;;;;;;;20.30;96.30;;;;;;5133334;27;19927;-69
2023/05/27 12:07:56;;;;;;;;;;;20.40;96.20;;;;;;5115982;27;19938;-68
2023/05/27 12:10:21;;;;;;;;;;;20.30;96.10;;;;;;5115944;27;19923;-70
2023/05/27 12:12:47;;;;;;;;;;;20.10;96.10;;;;;;5132668;27;19924;-64
2023/05/27 12:15:13;;;;;;;;;;;20.10;96.60;;;;;;5134151;27;19928;-65
2023/05/27 12:17:38;;;;;;;;;;;20.20;97.10;;;;;;5134113;27;20048;-65
2023/05/27 12:20:06;;;;;;;;;;;20.50;96.90;;;;;;5115726;27;19923;-67
2023/05/27 12:22:31;;;;;;;;;;;20.60;96.30;;;;;;5134200;27;19975;-66
2023/05/27 12:24:57;;;;;;;;;;;20.60;96.50;;;;;;5115551;27;20046;-66
2023/05/27 12:27:22;;;;;;;;;;;20.60;96.50;;;;;;5134073;27;19924;-66
2023/05/27 12:29:48;;;;;;;;;;;20.60;95.90;;;;;;5133601;27;20435;-66
2023/05/27 12:32:13;;;;;;;;;;;20.50;95.50;;;;;;5132179;27;19923;-65
2023/05/27 12:34:39;;;;;;;;;;;20.30;95.60;;;;;;5132706;27;20026;-67
2023/05/27 12:37:05;;;;;;;;;;;20.30;95.70;;;;;;5132681;27;20002;-66
2023/05/27 12:39:30;;;;;;;;;;;20.30;95.80;;;;;;5132790;27;19953;-66
2023/05/27 12:41:56;;;;;;;;;;;20.30;95.50;;;;;;5133049;27;19927;-67
2023/05/27 12:44:22;;;;;;;;;;;20.30;95.70;;;;;;5133906;27;19923;-66
2023/05/27 12:46:47;;;;;;;;;;;20.30;95.80;;;;;;5133415;27;20318;-67
2023/05/27 12:49:13;;;;;;;;;;;20.30;96.10;;;;;;5132518;27;19973;-67
2023/05/27 12:51:38;;;;;;;;;;;20.30;96.00;;;;;;5133288;27;19923;-66
2023/05/27 12:54:04;;;;;;;;;;;20.30;96.10;;;;;;5133270;27;20254;-67
2023/05/27 12:56:29;;;;;;;;;;;20.20;96.00;;;;;;5133340;27;19952;-67
2023/05/27 12:58:55;;;;;;;;;;;20.20;96.20;;;;;;5133121;27;20022;-66
2023/05/27 13:01:21;;;;;;;;;;;20.10;96.10;;;;;;5132537;27;19924;-66
2023/05/27 13:03:46;;;;;;;;;;;20.10;96.40;;;;;;5133656;27;19924;-66
2023/05/27 13:06:12;;;;;;;;;;;20.30;96.80;;;;;;5133043;27;20309;-66
2023/05/27 13:08:38;;;;;;;;;;;20.40;96.70;;;;;;5132477;27;19981;-67
2023/05/27 13:11:03;;;;;;;;;;;20.50;96.50;;;;;;5166797;27;20344;-67
2023/05/27 13:13:29;;;;;;;;;;;20.40;96.20;;;;;;5132047;27;19929;-67
2023/05/27 13:15:55;;;;;;;;;;;20.30;96.10;;;;;;5131771;27;20310;-67
2023/05/27 13:18:20;;;;;;;;;;;20.30;96.80;;;;;;5131831;27;20368;-68
2023/05/27 13:20:46;;;;;;;;;;;20.30;96.80;;;;;;5132345;27;19923;-67
2023/05/27 13:23:12;;;;;;;;;;;20.30;97.40;;;;;;5132706;27;19978;-67
2023/05/27 13:25:37;;;;;;;;;;;20.30;97.20;;;;;;5132888;27;19974;-67
2023/05/27 13:28:03;;;;;;;;;;;20.30;97.20;;;;;;5132819;27;19924;-67
2023/05/27 13:30:29;;;;;;;;;;;20.30;97.40;;;;;;5132010;27;19931;-67
2023/05/27 13:32:55;;;;;;;;;;;20.20;97.50;;;;;;5132549;28;19961;-68
2023/05/27 13:35:21;;;;;;;;;;;20.20;97.50;;;;;;5133017;27;19985;-67
2023/05/27 13:37:47;;;;;;;;;;;20.30;97.90;;;;;;5132092;28;19959;-67
2023/05/27 13:40:12;;;;;;;;;;;20.40;97.40;;;;;;5132589;28;20176;-66
2023/05/27 13:42:39;;;;;;;;;;;20.40;97.30;;;;;;5132644;28;20482;-67
2023/05/27 13:45:05;;;;;;;;;;;20.30;97.10;;;;;;5136438;27;19966;-67
2023/05/27 13:47:30;;;;;;;;;;;20.20;97.30;;;;;;5136257;27;20044;-67
2023/05/27 13:49:56;;;;;;;;;;;20.20;97.70;;;;;;5135723;27;19927;-68
2023/05/27 13:52:22;;;;;;;;;;;20.20;97.90;;;;;;5118945;27;20284;-67
2023/05/27 13:54:47;;;;;;;;;;;20.30;97.70;;;;;;5136477;27;19931;-68
2023/05/27 13:57:13;;;;;;;;;;;20.20;97.80;;;;;;5135299;27;19934;-67
2023/05/27 13:59:38;;;;;;;;;;;20.20;97.80;;;;;;5136981;27;19923;-67
2023/05/27 14:02:05;;;;;;;;;;;20.10;97.50;;;;;;5135208;27;19996;-68
2023/05/27 14:04:31;;;;;;;;;;;20.10;97.90;;;;;;5135812;27;19923;-67
2023/05/27 14:06:57;;;;;;;;;;;20.10;97.70;;;;;;5136729;27;19923;-68
2023/05/27 14:09:22;;;;;;;;;;;20.10;97.90;;;;;;5136663;27;20025;-67
2023/05/27 14:11:48;;;;;;;;;;;20.10;98.30;;;;;;5136769;27;20337;-67
2023/05/27 14:14:14;;;;;;;;;;;20.10;98.20;;;;;;5135092;27;20016;-67
2023/05/27 14:16:39;;;;;;;;;;;20.10;98.20;;;;;;5135721;27;19923;-67
2023/05/27 14:19:05;;;;;;;;;;;20.20;98.60;;;;;;5135073;27;20289;-68
2023/05/27 14:21:30;;;;;;;;;;;20.20;99.00;;;;;;5136396;27;19987;-69
2023/05/27 14:23:56;;;;;;;;;;;20.20;99.00;;;;;;5135511;27;20361;-67
2023/05/27 14:26:21;;;;;;;;;;;20.10;99.90;;;;;;5136133;27;19932;-67
2023/05/27 14:28:47;;;;;;;;;;;20.00;99.90;;;;;;5136317;27;20014;-68
2023/05/27 14:31:13;;;;;;;;;;;19.90;99.90;;;;;;5136045;27;19927;-67
2023/05/27 14:33:38;;;;;;;;;;;19.90;99.90;;;;;;5136404;27;20014;-67
2023/05/27 14:36:04;;;;;;;;;;;19.90;99.90;;;;;;5135888;27;19924;-68